sensor_id;sensor_type;location;lat;lon;timestamp;P1;durP1;ratioP1;P2;durP2;ratioP2
43682;SDS011;29285;52.128;21.060;2023-05-29T00:04:17;5.20;;;2.00;;
43682;SDS011;29285;52.128;21.060;2023-05-29T00:09:18;4.00;;;1.80;;
43682;SDS011;29285;52.128;21.060;2023-05-29T00:14:19;4.90;;;2.60;;
43682;SDS011;29285;52.128;21.060;2023-05-29T00:19:22;3.50;;;2.00;;
43682;SDS011;29285;52.128;21.060;2023-05-29T00:24:25;6.00;;;2.40;;
43682;SDS011;29285;52.128;21.060;2023-05-29T00:29:26;1.90;;;1.60;;
43682;SDS011;29285;52.128;21.060;2023-05-29T00:34:28;3.10;;;2.00;;
43682;SDS011;29285;52.128;21.060;2023-05-29T00:39:28;2.60;;;2.20;;
43682;SDS011;29285;52.128;21.060;2023-05-29T00:44:29;2.80;;;2.20;;
43682;SDS011;29285;52.128;21.060;2023-05-29T00:49:30;4.70;;;2.30;;
43682;SDS011;29285;52.128;21.060;2023-05-29T00:54:32;6.30;;;2.20;;
43682;SDS011;29285;52.128;21.060;2023-05-29T00:59:33;4.40;;;2.30;;
43682;SDS011;29285;52.128;21.060;2023-05-29T01:04:35;2.70;;;1.80;;
43682;SDS011;29285;52.128;21.060;2023-05-29T01:09:36;3.00;;;1.80;;
43682;SDS011;29285;52.128;21.060;2023-05-29T01:20:09;3.10;;;1.60;;
43682;SDS011;29285;52.128;21.060;2023-05-29T01:25:37;3.00;;;2.30;;
43682;SDS011;29285;52.128;21.060;2023-05-29T01:30:59;5.00;;;2.40;;
43682;SDS011;29285;52.128;21.060;2023-05-29T01:36:01;6.00;;;2.80;;
43682;SDS011;29285;52.128;21.060;2023-05-29T01:41:02;7.20;;;2.10;;
43682;SDS011;29285;52.128;21.060;2023-05-29T01:46:04;5.20;;;1.70;;
43682;SDS011;29285;52.128;21.060;2023-05-29T01:51:05;6.30;;;2.40;;
43682;SDS011;29285;52.128;21.060;2023-05-29T01:56:08;3.50;;;2.20;;
43682;SDS011;29285;52.128;21.060;2023-05-29T04:21:24;8.60;;;5.70;;
43682;SDS011;29285;52.128;21.060;2023-05-29T04:26:25;7.20;;;4.90;;
43682;SDS011;29285;52.128;21.060;2023-05-29T04:31:26;7.50;;;5.10;;
43682;SDS011;29285;52.128;21.060;2023-05-29T04:36:27;10.10;;;5.70;;
43682;SDS011;29285;52.128;21.060;2023-05-29T04:41:28;10.90;;;6.00;;
43682;SDS011;29285;52.128;21.060;2023-05-29T04:46:31;11.20;;;6.10;;
43682;SDS011;29285;52.128;21.060;2023-05-29T04:51:32;11.90;;;6.00;;
43682;SDS011;29285;52.128;21.060;2023-05-29T04:56:33;9.00;;;5.40;;
43682;SDS011;29285;52.128;21.060;2023-05-29T05:01:34;9.60;;;5.40;;
43682;SDS011;29285;52.128;21.060;2023-05-29T05:06:35;10.50;;;5.20;;
43682;SDS011;29285;52.128;21.060;2023-05-29T05:11:36;10.60;;;5.40;;
43682;SDS011;29285;52.128;21.060;2023-05-29T05:16:37;16.40;;;6.90;;
43682;SDS011;29285;52.128;21.060;2023-05-29T05:21:38;10.20;;;6.60;;
43682;SDS011;29285;52.128;21.060;2023-05-29T05:26:39;7.40;;;5.40;;
43682;SDS011;29285;52.128;21.060;2023-05-29T05:31:40;12.80;;;5.20;;
43682;SDS011;29285;52.128;21.060;2023-05-29T05:36:41;8.40;;;5.30;;
43682;SDS011;29285;52.128;21.060;2023-05-29T05:41:42;13.90;;;5.40;;
43682;SDS011;29285;52.128;21.060;2023-05-29T05:46:44;10.80;;;5.70;;
43682;SDS011;29285;52.128;21.060;2023-05-29T05:51:45;10.80;;;5.30;;
43682;SDS011;29285;52.128;21.060;2023-05-29T05:56:46;10.10;;;6.10;;
43682;SDS011;29285;52.128;21.060;2023-05-29T06:01:47;8.00;;;5.10;;
43682;SDS011;29285;52.128;21.060;2023-05-29T06:06:48;7.80;;;5.20;;
43682;SDS011;29285;52.128;21.060;2023-05-29T06:11:49;11.30;;;4.90;;
43682;SDS011;29285;52.128;21.060;2023-05-29T06:16:50;4.80;;;2.80;;
43682;SDS011;29285;52.128;21.060;2023-05-29T06:21:51;7.50;;;3.20;;
43682;SDS011;29285;52.128;21.060;2023-05-29T06:26:53;6.00;;;3.00;;
43682;SDS011;29285;52.128;21.060;2023-05-29T06:31:54;10.90;;;2.80;;
43682;SDS011;29285;52.128;21.060;2023-05-29T06:36:55;8.20;;;2.80;;
43682;SDS011;29285;52.128;21.060;2023-05-29T06:41:56;6.30;;;2.80;;
43682;SDS011;29285;52.128;21.060;2023-05-29T06:46:57;8.50;;;2.90;;
43682;SDS011;29285;52.128;21.060;2023-05-29T06:51:58;7.10;;;3.30;;
43682;SDS011;29285;52.128;21.060;2023-05-29T06:56:59;4.10;;;2.50;;
43682;SDS011;29285;52.128;21.060;2023-05-29T07:02:00;6.30;;;2.60;;
43682;SDS011;29285;52.128;21.060;2023-05-29T07:07:02;6.90;;;3.00;;
43682;SDS011;29285;52.128;21.060;2023-05-29T07:12:03;3.70;;;2.50;;
43682;SDS011;29285;52.128;21.060;2023-05-29T07:17:04;7.30;;;3.00;;
43682;SDS011;29285;52.128;21.060;2023-05-29T07:22:06;9.90;;;2.20;;
43682;SDS011;29285;52.128;21.060;2023-05-29T07:27:08;11.20;;;3.00;;
43682;SDS011;29285;52.128;21.060;2023-05-29T07:32:09;9.60;;;2.20;;
43682;SDS011;29285;52.128;21.060;2023-05-29T07:37:11;8.10;;;1.70;;
43682;SDS011;29285;52.128;21.060;2023-05-29T07:42:13;8.10;;;2.70;;
43682;SDS011;29285;52.128;21.060;2023-05-29T07:47:14;3.50;;;1.70;;
43682;SDS011;29285;52.128;21.060;2023-05-29T07:52:15;5.60;;;1.70;;
43682;SDS011;29285;52.128;21.060;2023-05-29T07:57:17;3.50;;;1.60;;
43682;SDS011;29285;52.128;21.060;2023-05-29T08:02:18;4.30;;;1.70;;
43682;SDS011;29285;52.128;21.060;2023-05-29T08:07:19;5.20;;;1.50;;
43682;SDS011;29285;52.128;21.060;2023-05-29T08:12:21;2.00;;;1.30;;
43682;SDS011;29285;52.128;21.060;2023-05-29T08:17:22;4.70;;;1.80;;
43682;SDS011;29285;52.128;21.060;2023-05-29T08:22:27;5.90;;;1.30;;
43682;SDS011;29285;52.128;21.060;2023-05-29T08:27:30;5.60;;;1.70;;
43682;SDS011;29285;52.128;21.060;2023-05-29T08:32:32;5.20;;;1.40;;
43682;SDS011;29285;52.128;21.060;2023-05-29T08:37:33;6.60;;;1.30;;
43682;SDS011;29285;52.128;21.060;2023-05-29T08:42:35;2.60;;;1.60;;
43682;SDS011;29285;52.128;21.060;2023-05-29T08:47:40;7.60;;;1.80;;
43682;SDS011;29285;52.128;21.060;2023-05-29T08:52:42;2.50;;;1.60;;
43682;SDS011;29285;52.128;21.060;2023-05-29T08:57:44;5.50;;;1.70;;
43682;SDS011;29285;52.128;21.060;2023-05-29T09:02:46;5.80;;;1.40;;
43682;SDS011;29285;52.128;21.060;2023-05-29T09:07:47;3.30;;;1.60;;
43682;SDS011;29285;52.128;21.060;2023-05-29T09:12:50;2.40;;;1.40;;
43682;SDS011;29285;52.128;21.060;2023-05-29T09:17:55;2.30;;;1.30;;
43682;SDS011;29285;52.128;21.060;2023-05-29T09:22:58;9.80;;;1.90;;
43682;SDS011;29285;52.128;21.060;2023-05-29T09:28:08;4.60;;;1.60;;
43682;SDS011;29285;52.128;21.060;2023-05-29T09:33:10;5.60;;;1.70;;
43682;SDS011;29285;52.128;21.060;2023-05-29T09:38:14;12.80;;;2.30;;
43682;SDS011;29285;52.128;21.060;2023-05-29T09:43:17;9.20;;;2.20;;
43682;SDS011;29285;52.128;21.060;2023-05-29T09:48:23;3.80;;;1.30;;
43682;SDS011;29285;52.128;21.060;2023-05-29T09:53:25;3.80;;;1.60;;
43682;SDS011;29285;52.128;21.060;2023-05-29T09:58:29;5.90;;;2.20;;
43682;SDS011;29285;52.128;21.060;2023-05-29T10:03:31;4.80;;;1.80;;
43682;SDS011;29285;52.128;21.060;2023-05-29T10:08:35;6.20;;;4.40;;
43682;SDS011;29285;52.128;21.060;2023-05-29T10:13:44;5.60;;;2.20;;
43682;SDS011;29285;52.128;21.060;2023-05-29T10:18:55;6.30;;;2.20;;
43682;SDS011;29285;52.128;21.060;2023-05-29T10:23:57;3.40;;;2.00;;
43682;SDS011;29285;52.128;21.060;2023-05-29T10:39:30;4.10;;;2.10;;
43682;SDS011;29285;52.128;21.060;2023-05-29T10:49:33;3.00;;;1.50;;
43682;SDS011;29285;52.128;21.060;2023-05-29T10:54:49;3.20;;;1.60;;
43682;SDS011;29285;52.128;21.060;2023-05-29T10:59:59;3.00;;;1.70;;
43682;SDS011;29285;52.128;21.060;2023-05-29T11:26:44;3.90;;;1.80;;
43682;SDS011;29285;52.128;21.060;2023-05-29T11:31:46;5.60;;;2.80;;
43682;SDS011;29285;52.128;21.060;2023-05-29T11:36:50;16.60;;;3.80;;
43682;SDS011;29285;52.128;21.060;2023-05-29T11:41:52;3.80;;;2.40;;
43682;SDS011;29285;52.128;21.060;2023-05-29T11:46:59;3.80;;;2.50;;
43682;SDS011;29285;52.128;21.060;2023-05-29T11:52:07;7.50;;;2.50;;
43682;SDS011;29285;52.128;21.060;2023-05-29T11:57:09;13.70;;;2.90;;
43682;SDS011;29285;52.128;21.060;2023-05-29T12:02:10;5.00;;;2.50;;
43682;SDS011;29285;52.128;21.060;2023-05-29T12:07:18;7.10;;;3.20;;
43682;SDS011;29285;52.128;21.060;2023-05-29T12:12:19;6.30;;;2.80;;
43682;SDS011;29285;52.128;21.060;2023-05-29T12:17:20;7.70;;;2.60;;
43682;SDS011;29285;52.128;21.060;2023-05-29T12:22:34;6.80;;;2.40;;
43682;SDS011;29285;52.128;21.060;2023-05-29T12:27:37;5.50;;;3.00;;
43682;SDS011;29285;52.128;21.060;2023-05-29T12:32:44;8.40;;;2.90;;
43682;SDS011;29285;52.128;21.060;2023-05-29T12:42:56;7.10;;;2.90;;
43682;SDS011;29285;52.128;21.060;2023-05-29T12:48:04;6.40;;;2.20;;
43682;SDS011;29285;52.128;21.060;2023-05-29T12:53:08;7.80;;;2.60;;
43682;SDS011;29285;52.128;21.060;2023-05-29T12:58:14;3.50;;;2.50;;
43682;SDS011;29285;52.128;21.060;2023-05-29T13:03:19;9.30;;;2.60;;
43682;SDS011;29285;52.128;21.060;2023-05-29T13:08:21;8.50;;;3.00;;
43682;SDS011;29285;52.128;21.060;2023-05-29T13:13:22;5.30;;;2.70;;
43682;SDS011;29285;52.128;21.060;2023-05-29T13:18:23;9.10;;;2.40;;
43682;SDS011;29285;52.128;21.060;2023-05-29T13:23:23;5.40;;;2.10;;
43682;SDS011;29285;52.128;21.060;2023-05-29T13:28:24;7.10;;;2.20;;
43682;SDS011;29285;52.128;21.060;2023-05-29T13:33:26;6.00;;;2.50;;
43682;SDS011;29285;52.128;21.060;2023-05-29T13:38:26;10.40;;;2.40;;
43682;SDS011;29285;52.128;21.060;2023-05-29T13:43:27;7.20;;;2.10;;
43682;SDS011;29285;52.128;21.060;2023-05-29T13:48:28;6.00;;;2.20;;
43682;SDS011;29285;52.128;21.060;2023-05-29T13:53:29;3.90;;;2.70;;
43682;SDS011;29285;52.128;21.060;2023-05-29T13:58:30;6.80;;;2.00;;
43682;SDS011;29285;52.128;21.060;2023-05-29T14:03:31;5.20;;;2.00;;
43682;SDS011;29285;52.128;21.060;2023-05-29T14:08:33;5.00;;;2.30;;
43682;SDS011;29285;52.128;21.060;2023-05-29T14:13:34;4.50;;;1.90;;
43682;SDS011;29285;52.128;21.060;2023-05-29T14:18:35;5.40;;;2.20;;
43682;SDS011;29285;52.128;21.060;2023-05-29T14:23:36;4.60;;;2.00;;
43682;SDS011;29285;52.128;21.060;2023-05-29T14:28:38;4.90;;;2.00;;
43682;SDS011;29285;52.128;21.060;2023-05-29T14:33:40;4.80;;;1.90;;
43682;SDS011;29285;52.128;21.060;2023-05-29T14:38:41;5.80;;;2.50;;
43682;SDS011;29285;52.128;21.060;2023-05-29T14:43:43;5.30;;;1.70;;
43682;SDS011;29285;52.128;21.060;2023-05-29T14:48:44;4.50;;;1.90;;
43682;SDS011;29285;52.128;21.060;2023-05-29T14:53:47;3.50;;;1.90;;
43682;SDS011;29285;52.128;21.060;2023-05-29T14:58:49;4.80;;;2.20;;
43682;SDS011;29285;52.128;21.060;2023-05-29T15:03:50;3.10;;;2.30;;
43682;SDS011;29285;52.128;21.060;2023-05-29T15:08:51;7.90;;;2.50;;
43682;SDS011;29285;52.128;21.060;2023-05-29T15:13:53;5.00;;;2.00;;
43682;SDS011;29285;52.128;21.060;2023-05-29T15:18:55;3.30;;;1.60;;
43682;SDS011;29285;52.128;21.060;2023-05-29T15:23:55;4.40;;;1.90;;
43682;SDS011;29285;52.128;21.060;2023-05-29T15:28:57;8.30;;;1.90;;
43682;SDS011;29285;52.128;21.060;2023-05-29T15:33:58;3.00;;;1.90;;
43682;SDS011;29285;52.128;21.060;2023-05-29T15:38:59;2.50;;;2.00;;
43682;SDS011;29285;52.128;21.060;2023-05-29T15:44:00;4.60;;;2.00;;
43682;SDS011;29285;52.128;21.060;2023-05-29T15:49:01;2.60;;;2.20;;
43682;SDS011;29285;52.128;21.060;2023-05-29T15:54:02;7.20;;;2.10;;
43682;SDS011;29285;52.128;21.060;2023-05-29T15:59:04;5.90;;;2.50;;
43682;SDS011;29285;52.128;21.060;2023-05-29T16:04:05;6.10;;;2.30;;
43682;SDS011;29285;52.128;21.060;2023-05-29T16:09:07;7.00;;;2.80;;
43682;SDS011;29285;52.128;21.060;2023-05-29T16:14:08;6.20;;;2.10;;
43682;SDS011;29285;52.128;21.060;2023-05-29T16:19:09;8.90;;;2.10;;
43682;SDS011;29285;52.128;21.060;2023-05-29T16:24:10;8.30;;;2.20;;
43682;SDS011;29285;52.128;21.060;2023-05-29T16:29:11;4.70;;;1.90;;
43682;SDS011;29285;52.128;21.060;2023-05-29T16:34:12;8.40;;;2.30;;
43682;SDS011;29285;52.128;21.060;2023-05-29T16:39:13;6.80;;;2.50;;
43682;SDS011;29285;52.128;21.060;2023-05-29T16:44:15;3.50;;;2.40;;
43682;SDS011;29285;52.128;21.060;2023-05-29T16:49:16;6.70;;;2.60;;
43682;SDS011;29285;52.128;21.060;2023-05-29T16:54:19;6.80;;;2.70;;
43682;SDS011;29285;52.128;21.060;2023-05-29T16:59:21;6.10;;;2.10;;
43682;SDS011;29285;52.128;21.060;2023-05-29T17:04:21;5.80;;;2.20;;
43682;SDS011;29285;52.128;21.060;2023-05-29T17:09:22;4.30;;;2.40;;
43682;SDS011;29285;52.128;21.060;2023-05-29T17:14:27;3.50;;;1.80;;
43682;SDS011;29285;52.128;21.060;2023-05-29T17:19:28;6.50;;;2.20;;
43682;SDS011;29285;52.128;21.060;2023-05-29T17:24:29;2.60;;;2.10;;
43682;SDS011;29285;52.128;21.060;2023-05-29T17:29:30;7.00;;;2.40;;
43682;SDS011;29285;52.128;21.060;2023-05-29T17:34:31;6.30;;;2.60;;
43682;SDS011;29285;52.128;21.060;2023-05-29T17:39:32;5.90;;;2.20;;
43682;SDS011;29285;52.128;21.060;2023-05-29T17:44:33;7.10;;;2.50;;
43682;SDS011;29285;52.128;21.060;2023-05-29T17:49:34;4.30;;;3.20;;
43682;SDS011;29285;52.128;21.060;2023-05-29T17:54:36;5.70;;;2.40;;
43682;SDS011;29285;52.128;21.060;2023-05-29T17:59:36;4.10;;;2.30;;
43682;SDS011;29285;52.128;21.060;2023-05-29T18:04:37;10.80;;;2.60;;
43682;SDS011;29285;52.128;21.060;2023-05-29T18:09:38;7.70;;;2.70;;
43682;SDS011;29285;52.128;21.060;2023-05-29T18:14:41;5.00;;;2.40;;
43682;SDS011;29285;52.128;21.060;2023-05-29T18:19:42;7.40;;;2.30;;
43682;SDS011;29285;52.128;21.060;2023-05-29T18:24:43;11.80;;;3.10;;
43682;SDS011;29285;52.128;21.060;2023-05-29T18:29:44;7.00;;;3.10;;
43682;SDS011;29285;52.128;21.060;2023-05-29T18:34:45;3.90;;;2.70;;
43682;SDS011;29285;52.128;21.060;2023-05-29T18:39:46;7.10;;;3.10;;
43682;SDS011;29285;52.128;21.060;2023-05-29T18:44:47;5.80;;;2.90;;
43682;SDS011;29285;52.128;21.060;2023-05-29T18:49:48;6.20;;;3.00;;
43682;SDS011;29285;52.128;21.060;2023-05-29T18:54:49;7.10;;;3.40;;
43682;SDS011;29285;52.128;21.060;2023-05-29T18:59:50;11.70;;;3.40;;
43682;SDS011;29285;52.128;21.060;2023-05-29T19:04:53;7.40;;;3.50;;
43682;SDS011;29285;52.128;21.060;2023-05-29T19:09:54;4.80;;;3.50;;
43682;SDS011;29285;52.128;21.060;2023-05-29T19:14:55;4.50;;;2.90;;
43682;SDS011;29285;52.128;21.060;2023-05-29T19:19:57;10.00;;;3.50;;
43682;SDS011;29285;52.128;21.060;2023-05-29T19:25:01;7.50;;;3.30;;
43682;SDS011;29285;52.128;21.060;2023-05-29T19:30:03;5.90;;;3.70;;
43682;SDS011;29285;52.128;21.060;2023-05-29T19:35:04;5.40;;;3.20;;
43682;SDS011;29285;52.128;21.060;2023-05-29T19:40:08;7.00;;;3.70;;
43682;SDS011;29285;52.128;21.060;2023-05-29T19:45:09;9.50;;;3.20;;
43682;SDS011;29285;52.128;21.060;2023-05-29T19:50:10;6.50;;;3.40;;
43682;SDS011;29285;52.128;21.060;2023-05-29T19:55:14;5.50;;;3.40;;
43682;SDS011;29285;52.128;21.060;2023-05-29T20:00:16;6.70;;;3.30;;
43682;SDS011;29285;52.128;21.060;2023-05-29T20:05:17;5.70;;;3.50;;
43682;SDS011;29285;52.128;21.060;2023-05-29T20:10:18;7.30;;;3.70;;
43682;SDS011;29285;52.128;21.060;2023-05-29T20:15:19;7.40;;;3.10;;
43682;SDS011;29285;52.128;21.060;2023-05-29T20:20:21;4.50;;;3.40;;
43682;SDS011;29285;52.128;21.060;2023-05-29T20:25:22;8.20;;;3.10;;
43682;SDS011;29285;52.128;21.060;2023-05-29T20:30:25;6.70;;;3.40;;
43682;SDS011;29285;52.128;21.060;2023-05-29T20:35:26;6.40;;;3.30;;
43682;SDS011;29285;52.128;21.060;2023-05-29T20:40:27;4.40;;;3.20;;
43682;SDS011;29285;52.128;21.060;2023-05-29T20:45:28;5.80;;;3.40;;
43682;SDS011;29285;52.128;21.060;2023-05-29T20:50:30;14.10;;;3.20;;
43682;SDS011;29285;52.128;21.060;2023-05-29T20:55:31;5.60;;;3.20;;
43682;SDS011;29285;52.128;21.060;2023-05-29T21:00:32;6.00;;;3.50;;
43682;SDS011;29285;52.128;21.060;2023-05-29T21:05:34;14.40;;;3.40;;
43682;SDS011;29285;52.128;21.060;2023-05-29T21:10:35;9.70;;;3.50;;
43682;SDS011;29285;52.128;21.060;2023-05-29T21:15:36;7.50;;;3.50;;
43682;SDS011;29285;52.128;21.060;2023-05-29T21:20:37;6.00;;;3.60;;
43682;SDS011;29285;52.128;21.060;2023-05-29T21:25:39;7.20;;;3.70;;
43682;SDS011;29285;52.128;21.060;2023-05-29T21:30:40;7.70;;;3.70;;
43682;SDS011;29285;52.128;21.060;2023-05-29T21:35:43;6.70;;;3.50;;
43682;SDS011;29285;52.128;21.060;2023-05-29T21:40:44;7.70;;;4.20;;
43682;SDS011;29285;52.128;21.060;2023-05-29T21:45:46;9.70;;;3.70;;
43682;SDS011;29285;52.128;21.060;2023-05-29T21:50:47;7.70;;;4.00;;
43682;SDS011;29285;52.128;21.060;2023-05-29T21:55:48;6.40;;;3.50;;
43682;SDS011;29285;52.128;21.060;2023-05-29T22:00:50;7.60;;;3.60;;
43682;SDS011;29285;52.128;21.060;2023-05-29T22:05:51;4.60;;;3.30;;
43682;SDS011;29285;52.128;21.060;2023-05-29T22:10:53;10.60;;;3.70;;
43682;SDS011;29285;52.128;21.060;2023-05-29T22:15:54;5.10;;;3.40;;
43682;SDS011;29285;52.128;21.060;2023-05-29T22:20:55;5.90;;;3.50;;
43682;SDS011;29285;52.128;21.060;2023-05-29T22:25:56;7.30;;;3.10;;
43682;SDS011;29285;52.128;21.060;2023-05-29T22:31:00;6.50;;;3.00;;
43682;SDS011;29285;52.128;21.060;2023-05-29T22:36:01;8.50;;;3.50;;
43682;SDS011;29285;52.128;21.060;2023-05-29T22:41:02;9.80;;;3.30;;
43682;SDS011;29285;52.128;21.060;2023-05-29T22:46:03;8.00;;;3.30;;
43682;SDS011;29285;52.128;21.060;2023-05-29T22:51:05;6.20;;;2.60;;
43682;SDS011;29285;52.128;21.060;2023-05-29T22:56:07;4.60;;;2.90;;
43682;SDS011;29285;52.128;21.060;2023-05-29T23:01:08;4.40;;;3.10;;
43682;SDS011;29285;52.128;21.060;2023-05-29T23:06:09;5.70;;;3.30;;
43682;SDS011;29285;52.128;21.060;2023-05-29T23:11:12;4.70;;;3.00;;
43682;SDS011;29285;52.128;21.060;2023-05-29T23:16:13;11.70;;;3.10;;
43682;SDS011;29285;52.128;21.060;2023-05-29T23:21:17;6.30;;;3.10;;
43682;SDS011;29285;52.128;21.060;2023-05-29T23:26:19;6.90;;;2.90;;
43682;SDS011;29285;52.128;21.060;2023-05-29T23:31:25;7.40;;;3.20;;
43682;SDS011;29285;52.128;21.060;2023-05-29T23:36:27;4.70;;;2.30;;
43682;SDS011;29285;52.128;21.060;2023-05-29T23:41:28;8.60;;;2.80;;
43682;SDS011;29285;52.128;21.060;2023-05-29T23:46:29;7.80;;;3.00;;
43682;SDS011;29285;52.128;21.060;2023-05-29T23:51:30;7.80;;;2.40;;
43682;SDS011;29285;52.128;21.060;2023-05-29T23:56:33;8.70;;;3.10;;
